Du har inga inställningar för hoppväder.nu

Hoppväder.nu

Senast uppdaterat 04:38

UTC-tid

2020-11-26 kl. 03:38


Sol och måne

Solen går upp 8:27 och går ner 15:09 (beräknade cirkatider)
Nästa fullmåne blir om 4 dagar (2020-11-30)

METAR

ESOE (Örebro)
(18 minuter sedan)
ESOE 260320Z AUTO 24006KT 200V260 9999 -DZ SCT030/// BKN047/// 09/07 Q1008=



ESOK (Karlstad)
(18 minuter sedan)
ESOK 260320Z AUTO 22006KT 9999 FEW087/// 06/06 Q1007=



ESGR (Skövde)
(18 minuter sedan)
ESGR 260320Z AUTO 18007KT 3800 DZ SCT008/// OVC013/// 07/06 Q1009=



ESSD (Borlänge)
(18 minuter sedan)
ESSD 260320Z AUTO 27006KT 9999 SCT140/// 05/04 Q1006=



ESOW (Västerås)
(18 minuter sedan)
ESOW 260320Z AUTO 21007KT 4900 DZ FEW006/// SCT013/// BKN047/// 08/07 Q1007 REDZ=



TAF

ESOE (Örebro)
(68 minuter sedan)
ESOE 260230Z 2603/2609 24006KT 9000 -RADZ BKN006 TEMPO 2603/2605 4000 RA BR BKN012 BECMG 2605/2607 NSC=



ESOK (Karlstad)
ESOK



ESGR (Skövde)
ESGR



ESSD (Borlänge)
ESSD



ESOW (Västerås)
ESOW





Kodnycklar till TAF och METAR






LHP

(Örebro är område se32g i Delområde 4)

Prognos är inte uppdaterad






Preliminär prognos